.
WxDataArchive / Data Records for 2008-01-04
2008-01-03 January 2008 2008-01-05

Data Records for Friday, 04 January 2008

Time	Temp	Chill	HIndex	Humid	Dewpt	 Wind 	HiWind	WindDir	Rain 	Barom 
-----	----	-----	------	-----	-----	------	------	-------	-----	----- 
00:00	19.1	19.1	19.1	73	11.9	2	5	248	0.00	30.486 
00:05	19.1	19.1	19.1	73	11.9	1	5	248	0.00	30.485 
00:10	19.1	19.1	19.1	73	11.9	2	6	248	0.00	30.485 
00:15	19.1	19.1	19.1	74	12.2	1	4	248	0.00	30.485 
00:20	19.1	19.1	19.1	73	11.9	1	4	248	0.00	30.484 
00:25	19.1	19.1	19.1	74	12.2	1	5	248	0.00	30.483 
00:30	19.1	19.1	19.1	74	12.2	2	6	248	0.00	30.483 
00:35	19.1	19.1	19.1	74	12.2	1	4	248	0.00	30.482 
00:40	18.9	18.9	18.9	74	12.0	1	4	248	0.00	30.478 
00:45	18.9	18.9	18.9	74	12.0	1	4	248	0.00	30.471 
00:50	18.8	18.8	18.8	74	11.9	1	5	248	0.00	30.467 
00:55	18.8	18.8	18.8	75	12.2	1	4	270	0.00	30.465 
01:00	18.9	18.9	18.9	75	12.3	2	4	248	0.00	30.465 
01:05	18.9	18.9	18.9	75	12.3	2	5	248	0.00	30.463 
01:10	18.9	18.9	18.9	74	12.0	1	3	248	0.00	30.460 
01:15	18.9	18.9	18.9	75	12.3	1	3	225	0.00	30.456 
01:20	18.9	18.9	18.9	74	12.0	2	5	248	0.00	30.457 
01:25	18.9	18.9	18.9	75	12.3	1	5	248	0.00	30.454 
01:30	18.9	18.9	18.9	74	12.0	1	5	248	0.00	30.451 
01:35	18.9	18.9	18.9	74	12.0	1	3	270	0.00	30.450 
01:40	19.1	19.1	19.1	74	12.2	1	5	225	0.00	30.447 
01:45	19.2	19.2	19.2	75	12.6	1	5	270	0.00	30.444 
01:50	19.5	19.5	19.5	74	12.6	1	4	248	0.00	30.443 
01:55	19.5	19.5	19.5	74	12.6	1	4	248	0.00	30.441 
02:00	19.5	19.5	19.5	74	12.6	1	6	248	0.00	30.442 
02:05	19.7	19.7	19.7	73	12.5	1	5	248	0.00	30.439 
02:10	19.7	19.7	19.7	73	12.5	1	5	248	0.00	30.438 
02:15	19.9	19.9	19.9	73	12.7	1	6	248	0.00	30.438 
02:20	19.9	19.9	19.9	73	12.7	2	5	248	0.00	30.439 
02:25	20.0	20.0	20.0	72	12.5	2	6	248	0.00	30.437 
02:30	20.2	20.2	20.2	72	12.6	2	6	248	0.00	30.436 
02:35	20.3	20.3	20.3	71	12.4	2	7	248	0.00	30.437 
02:40	20.5	20.5	20.5	71	12.6	2	7	248	0.00	30.438 
02:45	20.5	20.5	20.5	71	12.6	2	5	270	0.00	30.439 
02:50	20.6	20.6	20.6	71	12.7	2	5	248	0.00	30.438 
02:55	20.6	20.6	20.6	71	12.7	2	6	248	0.00	30.438 
03:00	20.8	20.8	20.8	71	12.9	2	6	248	0.00	30.437 
03:05	21.1	21.1	21.1	70	12.9	3	6	248	0.00	30.436 
03:10	21.4	21.4	21.4	70	13.2	2	5	248	0.00	30.437 
03:15	21.8	21.8	21.8	70	13.5	3	10	248	0.00	30.439 
03:20	22.1	22.1	22.1	70	13.8	2	6	248	0.00	30.438 
03:25	22.2	22.2	22.2	69	13.6	3	7	248	0.00	30.433 
03:30	22.4	22.4	22.4	69	13.8	2	7	248	0.00	30.430 
03:35	22.5	22.5	22.5	69	13.9	3	7	248	0.00	30.429 
03:40	22.7	22.7	22.7	68	13.8	3	6	270	0.00	30.426 
03:45	22.9	22.9	22.9	67	13.6	3	10	248	0.00	30.419 
03:50	22.9	22.9	22.9	67	13.6	3	11	248	0.00	30.416 
03:55	23.0	17.7	23.0	67	13.7	4	9	248	0.00	30.414 
04:00	23.0	23.0	23.0	67	13.7	3	10	248	0.00	30.416 
04:05	23.2	16.7	23.2	66	13.6	5	15	248	0.00	30.415 
04:10	23.2	23.2	23.2	66	13.6	3	11	270	0.00	30.411 
04:15	23.3	18.0	23.3	66	13.6	4	14	248	0.00	30.413 
04:20	23.3	23.3	23.3	66	13.6	3	11	248	0.00	30.409 
04:25	23.5	23.5	23.5	66	13.8	3	9	248	0.00	30.408 
04:30	23.5	23.5	23.5	65	13.5	3	7	248	0.00	30.403 
04:35	23.6	17.2	23.6	65	13.6	5	13	248	0.00	30.401 
04:40	23.8	23.8	23.8	65	13.8	3	11	270	0.00	30.403 
04:45	23.8	18.6	23.8	64	13.4	4	10	248	0.00	30.399 
04:50	23.9	18.7	23.9	64	13.5	4	12	248	0.00	30.399 
04:55	24.1	19.0	24.1	64	13.7	4	17	248	0.00	30.398 
05:00	24.1	17.8	24.1	62	13.0	5	12	248	0.00	30.397 
05:05	24.2	24.2	24.2	63	13.4	3	9	270	0.00	30.398 
05:10	24.2	19.1	24.2	63	13.4	4	9	248	0.00	30.396 
05:15	24.2	19.1	24.2	63	13.4	4	11	270	0.00	30.397 
05:20	24.2	24.2	24.2	63	13.4	3	7	270	0.00	30.396 
05:25	24.4	24.4	24.4	63	13.6	3	10	248	0.00	30.395 
05:30	24.4	19.3	24.4	63	13.6	4	11	248	0.00	30.398 
05:35	24.4	18.1	24.4	62	13.3	5	12	270	0.00	30.399 
05:40	24.4	24.4	24.4	63	13.6	3	7	248	0.00	30.401 
05:45	24.5	24.5	24.5	63	13.7	3	8	248	0.00	30.401 
05:50	24.5	24.5	24.5	63	13.7	3	10	248	0.00	30.403 
05:55	24.5	24.5	24.5	62	13.4	3	9	248	0.00	30.403 
06:00	24.7	19.6	24.7	62	13.6	4	10	248	0.00	30.402 
06:05	24.7	24.7	24.7	62	13.6	3	10	248	0.00	30.405 
06:10	24.7	24.7	24.7	62	13.6	3	11	248	0.00	30.407 
06:15	24.8	24.8	24.8	62	13.7	2	6	248	0.00	30.405 
06:20	24.8	19.8	24.8	62	13.7	4	10	270	0.00	30.406 
06:25	24.8	19.8	24.8	62	13.7	4	10	248	0.00	30.408 
06:30	25.0	25.0	25.0	62	13.8	3	7	248	0.00	30.407 
06:35	25.0	25.0	25.0	62	13.8	3	9	248	0.00	30.403 
06:40	25.0	25.0	25.0	62	13.8	3	9	248	0.00	30.407 
06:45	25.0	25.0	25.0	62	13.8	2	6	248	0.00	30.406 
06:50	25.0	25.0	25.0	62	13.8	3	10	270	0.00	30.405 
06:55	25.0	25.0	25.0	62	13.8	2	7	248	0.00	30.407 
07:00	25.1	25.1	25.1	62	13.9	3	9	248	0.00	30.407 
07:05	25.1	25.1	25.1	60	13.2	2	7	248	0.00	30.410 
07:10	25.1	25.1	25.1	62	13.9	2	6	248	0.00	30.409 
07:15	25.1	25.1	25.1	62	13.9	3	9	248	0.00	30.408 
07:20	25.1	25.1	25.1	62	13.9	3	10	248	0.00	30.410 
07:25	25.0	25.0	25.0	61	13.5	3	11	248	0.00	30.403 
07:30	24.8	24.8	24.8	62	13.7	2	7	248	0.00	30.402 
07:35	24.7	24.7	24.7	62	13.6	3	7	248	0.00	30.403 
07:40	24.5	24.5	24.5	62	13.4	2	5	248	0.00	30.400 
07:45	24.4	24.4	24.4	62	13.3	2	5	248	0.00	30.403 
07:50	24.4	24.4	24.4	62	13.3	2	5	248	0.00	30.403 
07:55	24.4	24.4	24.4	62	13.3	2	10	248	0.00	30.402 
08:00	24.4	24.4	24.4	62	13.3	3	10	248	0.00	30.400 
08:05	24.4	24.4	24.4	62	13.3	1	5	248	0.00	30.397 
08:10	24.2	24.2	24.2	62	13.1	2	5	248	0.00	30.391 
08:15	24.2	24.2	24.2	62	13.1	2	7	248	0.00	30.390 
08:20	24.2	24.2	24.2	61	12.7	3	6	248	0.00	30.389 
08:25	24.2	24.2	24.2	61	12.7	2	6	248	0.00	30.387 
08:30	24.2	24.2	24.2	62	13.1	2	7	248	0.00	30.387 
08:35	24.4	24.4	24.4	61	12.9	2	8	248	0.00	30.386 
08:40	24.5	24.5	24.5	61	13.0	2	7	248	0.00	30.385 
08:45	24.5	24.5	24.5	60	12.6	2	10	248	0.00	30.386 
08:50	24.7	24.7	24.7	60	12.8	2	7	270	0.00	30.385 
08:55	24.7	24.7	24.7	60	12.8	3	6	270	0.00	30.384 
09:00	24.8	24.8	24.8	59	12.5	3	7	270	0.00	30.384 
09:05	24.7	24.7	24.7	59	12.4	2	6	248	0.00	30.384 
09:10	24.8	24.8	24.8	59	12.5	2	6	248	0.00	30.383 
09:15	25.0	25.0	25.0	58	12.3	2	6	248	0.00	30.384 
09:20	25.1	25.1	25.1	57	12.0	3	7	248	0.00	30.384 
09:25	25.3	25.3	25.3	57	12.2	2	6	248	0.00	30.385 
09:30	25.4	25.4	25.4	57	12.3	2	6	248	0.00	30.384 
09:35	25.6	20.7	25.6	56	12.1	4	14	270	0.00	30.383 
09:40	25.7	25.7	25.7	56	12.2	2	7	248	0.00	30.384 
09:45	26.0	26.0	26.0	56	12.5	2	5	248	0.00	30.385 
09:50	26.1	26.1	26.1	55	12.2	2	7	248	0.00	30.382 
09:55	26.4	26.4	26.4	55	12.5	2	11	248	0.00	30.382 
10:00	26.6	26.6	26.6	54	12.2	3	11	248	0.00	30.383 
10:05	26.9	22.2	26.9	54	12.5	4	12	270	0.00	30.380 
10:10	27.2	27.2	27.2	54	12.8	3	10	270	0.00	30.380 
10:15	27.5	27.5	27.5	54	13.1	3	7	270	0.00	30.377 
10:20	27.6	23.0	27.6	53	12.7	4	12	248	0.00	30.378 
10:25	27.6	27.6	27.6	53	12.7	3	11	248	0.00	30.379 
10:30	27.5	22.9	27.5	53	12.6	4	12	270	0.00	30.377 
10:35	27.8	27.8	27.8	54	13.3	2	10	248	0.00	30.378 
10:40	27.8	27.8	27.8	53	12.9	3	6	248	0.00	30.378 
10:45	27.5	21.8	27.5	51	11.8	5	19	248	0.00	30.378 
10:50	27.5	27.5	27.5	53	12.6	3	9	248	0.00	30.377 
10:55	27.6	27.6	27.6	53	12.7	3	11	248	0.00	30.377 
11:00	27.8	27.8	27.8	54	13.3	2	7	270	0.00	30.372 
11:05	27.6	23.0	27.6	53	12.7	4	10	270	0.00	30.366 
11:10	27.6	27.6	27.6	53	12.7	3	15	248	0.00	30.366 
11:15	27.8	27.8	27.8	53	12.9	3	11	248	0.00	30.366 
11:20	27.9	27.9	27.9	53	13.0	3	10	248	0.00	30.363 
11:25	28.2	23.7	28.2	52	12.9	4	11	248	0.00	30.362 
11:30	28.7	24.3	28.7	52	13.3	4	10	248	0.00	30.357 
11:35	29.1	24.7	29.1	52	13.7	4	9	248	0.00	30.357 
11:40	29.1	24.7	29.1	51	13.3	4	10	248	0.00	30.354 
11:45	29.3	23.9	29.3	50	13.0	5	12	248	0.00	30.352 
11:50	29.3	23.9	29.3	50	13.0	5	13	248	0.00	30.347 
11:55	29.4	24.0	29.4	50	13.1	5	14	248	0.00	30.346 
12:00	29.5	29.5	29.5	50	13.2	3	10	248	0.00	30.344 
12:05	29.8	29.8	29.8	51	13.9	3	9	270	0.00	30.339 
12:10	30.0	24.7	30.0	50	13.6	5	13	270	0.00	30.338 
12:15	30.0	23.8	30.0	49	13.2	6	14	248	0.00	30.332 
12:20	30.3	26.1	30.3	50	13.9	4	8	248	0.00	30.331 
12:25	30.7	26.6	30.7	50	14.3	4	7	248	0.00	30.328 
12:30	30.7	26.6	30.7	50	14.3	4	11	248	0.00	30.326 
12:35	30.7	30.7	30.7	50	14.3	3	9	248	0.00	30.324 
12:40	30.9	30.9	30.9	48	13.5	3	7	270	0.00	30.320 
12:45	30.9	30.9	30.9	50	14.5	3	6	248	0.00	30.315 
12:50	30.9	30.9	30.9	49	14.0	3	7	248	0.00	30.312 
12:55	30.9	30.9	30.9	49	14.0	3	9	248	0.00	30.311 
13:00	30.9	30.9	30.9	50	14.5	3	6	248	0.00	30.310 
13:05	31.0	31.0	31.0	50	14.6	1	4	248	0.00	30.308 
13:10	31.0	31.0	31.0	50	14.6	3	9	248	0.00	30.308 
13:15	31.0	31.0	31.0	50	14.6	2	9	248	0.00	30.304 
13:20	31.2	31.2	31.2	50	14.8	2	9	270	0.00	30.299 
13:25	31.2	31.2	31.2	50	14.8	3	9	270	0.00	30.296 
13:30	31.2	31.2	31.2	50	14.8	2	7	248	0.00	30.296 
13:35	31.3	31.3	31.3	49	14.4	2	7	248	0.00	30.296 
13:40	31.3	31.3	31.3	50	14.8	2	9	248	0.00	30.293 
13:45	31.3	31.3	31.3	50	14.8	2	7	270	0.00	30.295 
13:50	31.3	31.3	31.3	49	14.4	3	10	248	0.00	30.295 
13:55	31.3	31.3	31.3	49	14.4	3	6	270	0.00	30.295 
14:00	31.3	31.3	31.3	49	14.4	2	9	248	0.00	30.294 
14:05	31.3	31.3	31.3	50	14.8	3	10	248	0.00	30.292 
14:10	31.5	31.5	31.5	49	14.6	2	7	248	0.00	30.289 
14:15	31.8	31.8	31.8	50	15.3	1	7	270	0.00	30.286 
14:20	31.8	31.8	31.8	50	15.3	2	7	248	0.00	30.286 
14:25	31.8	31.8	31.8	50	15.3	2	6	248	0.00	30.284 
14:30	31.8	31.8	31.8	50	15.3	3	9	248	0.00	30.281 
14:35	31.9	31.9	31.9	50	15.4	2	6	270	0.00	30.279 
14:40	32.1	32.1	32.1	50	15.6	2	9	248	0.00	30.278 
14:45	32.2	32.2	32.2	53	17.0	1	5	248	0.00	30.276 
14:50	32.4	32.4	32.4	51	16.3	2	7	248	0.00	30.277 
14:55	32.5	32.5	32.5	51	16.4	2	5	270	0.00	30.274 
15:00	32.7	32.7	32.7	52	17.0	1	6	248	0.00	30.271 
15:05	32.7	32.7	32.7	50	16.1	2	7	270	0.00	30.267 
15:10	32.7	32.7	32.7	50	16.1	2	6	248	0.00	30.264 
15:15	32.5	32.5	32.5	50	16.0	3	7	248	0.00	30.263 
15:20	32.5	32.5	32.5	50	16.0	2	6	248	0.00	30.266 
15:25	32.7	32.7	32.7	51	16.6	2	6	248	0.00	30.269 
15:30	32.7	32.7	32.7	50	16.1	2	7	248	0.00	30.268 
15:35	32.5	28.7	32.5	50	16.0	4	10	248	0.00	30.270 
15:40	32.7	32.7	32.7	49	15.7	2	7	248	0.00	30.267 
15:45	32.5	32.5	32.5	50	16.0	2	5	248	0.00	30.267 
15:50	32.4	32.4	32.4	51	16.3	2	7	270	0.00	30.263 
15:55	32.4	32.4	32.4	50	15.9	2	7	248	0.00	30.266 
16:00	32.4	32.4	32.4	53	17.2	1	6	225	0.00	30.269 
16:05	32.2	32.2	32.2	53	17.0	1	7	248	0.00	30.267 
16:10	32.2	32.2	32.2	54	17.4	1	4	270	0.00	30.263 
16:15	32.2	32.2	32.2	54	17.4	1	6	248	0.00	30.262 
16:20	32.2	32.2	32.2	54	17.4	1	5	248	0.00	30.259 
16:25	32.2	32.2	32.2	54	17.4	1	3	68	0.00	30.258 
16:30	32.1	32.1	32.1	55	17.8	1	4	248	0.00	30.258 
16:35	31.9	31.9	31.9	55	17.6	1	3	135	0.00	30.258 
16:40	31.8	31.8	31.8	56	17.9	0	3	158	0.00	30.257 
16:45	31.6	31.6	31.6	56	17.7	1	4	112	0.00	30.254 
16:50	31.5	31.5	31.5	56	17.6	1	3	90	0.00	30.254 
16:55	31.5	31.5	31.5	57	18.0	0	3	22	0.00	30.253 
17:00	31.3	31.3	31.3	57	17.9	1	3	22	0.00	30.251 
17:05	31.2	31.2	31.2	57	17.8	0	2	22	0.00	30.247 
17:10	31.2	31.2	31.2	58	18.2	1	3	338	0.00	30.247 
17:15	31.2	31.2	31.2	58	18.2	1	4	112	0.00	30.247 
17:20	31.2	31.2	31.2	58	18.2	1	2	112	0.00	30.247 
17:25	31.0	31.0	31.0	58	18.0	0	2	112	0.00	30.248 
17:30	31.0	31.0	31.0	58	18.0	0	2	112	0.00	30.246 
17:35	31.0	31.0	31.0	58	18.0	0	1	112	0.00	30.244 
17:40	31.0	31.0	31.0	58	18.0	0	2	112	0.00	30.243 
17:45	31.2	31.2	31.2	58	18.2	1	3	112	0.00	30.242 
17:50	31.0	31.0	31.0	58	18.0	0	2	90	0.00	30.242 
17:55	31.0	31.0	31.0	58	18.0	1	4	90	0.00	30.242 
18:00	31.0	31.0	31.0	59	18.4	1	2	90	0.00	30.242 
18:05	31.0	31.0	31.0	59	18.4	0	3	338	0.00	30.241 
18:10	31.0	31.0	31.0	58	18.0	1	3	112	0.00	30.241 
18:15	31.2	31.2	31.2	58	18.2	1	4	112	0.00	30.240 
18:20	31.3	31.3	31.3	58	18.3	0	2	90	0.00	30.240 
18:25	31.3	31.3	31.3	58	18.3	0	2	90	0.00	30.239 
18:30	31.3	31.3	31.3	57	17.9	1	5	112	0.00	30.235 
18:35	31.5	31.5	31.5	57	18.0	1	4	112	0.00	30.229 
18:40	31.5	31.5	31.5	57	18.0	1	3	112	0.00	30.229 
18:45	31.5	31.5	31.5	58	18.4	1	2	112	0.00	30.227 
18:50	31.3	31.3	31.3	58	18.3	0	2	112	0.00	30.227 
18:55	31.3	31.3	31.3	57	17.9	0	2	112	0.00	30.226 
19:00	31.3	31.3	31.3	58	18.3	0	2	112	0.00	30.226 
19:05	31.3	31.3	31.3	58	18.3	0	3	112	0.00	30.228 
19:10	31.5	31.5	31.5	57	18.0	1	4	68	0.00	30.225 
19:15	32.1	32.1	32.1	55	17.8	1	7	225	0.00	30.226 
19:20	32.4	32.4	32.4	55	18.1	1	3	248	0.00	30.224 
19:25	32.5	32.5	32.5	54	17.7	1	3	248	0.00	30.222 
19:30	32.9	32.9	32.9	53	17.7	1	5	270	0.00	30.220 
19:35	33.1	33.1	33.1	52	17.4	1	4	0	0.00	30.220 
19:40	33.2	33.2	33.2	52	17.5	1	5	225	0.00	30.218 
19:45	33.5	33.5	33.5	51	17.3	2	9	112	0.00	30.214 
19:50	33.5	33.5	33.5	51	17.3	2	7	68	0.00	30.210 
19:55	33.5	33.5	33.5	52	17.8	1	6	338	0.00	30.211 
20:00	33.5	33.5	33.5	52	17.8	2	5	45	0.00	30.210 
20:05	33.5	33.5	33.5	52	17.8	2	6	68	0.00	30.208 
20:10	33.5	33.5	33.5	53	18.2	1	6	90	0.00	30.205 
20:15	33.5	33.5	33.5	53	18.2	2	5	90	0.00	30.204 
20:20	33.5	33.5	33.5	53	18.2	2	6	45	0.00	30.197 
20:25	33.7	33.7	33.7	52	18.0	2	6	315	0.00	30.198 
20:30	33.7	33.7	33.7	53	18.4	1	4	135	0.00	30.195 
20:35	33.5	33.5	33.5	53	18.2	2	6	270	0.00	30.195 
20:40	33.5	33.5	33.5	52	17.8	1	4	135	0.00	30.193 
20:45	33.5	33.5	33.5	52	17.8	2	6	338	0.00	30.191 
20:50	33.7	33.7	33.7	52	18.0	2	6	112	0.00	30.192 
20:55	33.7	33.7	33.7	53	18.4	2	6	248	0.00	30.190 
21:00	33.7	33.7	33.7	52	18.0	2	5	270	0.00	30.188 
21:05	33.7	33.7	33.7	53	18.4	2	9	292	0.00	30.180 
21:10	33.7	33.7	33.7	52	18.0	1	5	270	0.00	30.177 
21:15	33.8	33.8	33.8	52	18.1	2	6	0	0.00	30.175 
21:20	33.8	33.8	33.8	51	17.6	1	4	270	0.00	30.176 
21:25	34.0	34.0	34.0	50	17.3	2	5	225	0.00	30.176 
21:30	34.1	34.1	34.1	51	17.9	2	5	270	0.00	30.174 
21:35	34.3	34.3	34.3	50	17.6	2	6	270	0.00	30.175 
21:40	34.3	34.3	34.3	50	17.6	2	5	248	0.00	30.173 
21:45	34.3	34.3	34.3	50	17.6	3	9	270	0.00	30.169 
21:50	34.4	34.4	34.4	50	17.7	2	6	248	0.00	30.167 
21:55	34.4	34.4	34.4	50	17.7	2	5	270	0.00	30.168 
22:00	34.3	34.3	34.3	50	17.6	2	6	248	0.00	30.167 
22:05	34.4	34.4	34.4	50	17.7	2	6	248	0.00	30.166 
22:10	34.4	34.4	34.4	50	17.7	1	5	270	0.00	30.162 
22:15	34.3	34.3	34.3	50	17.6	2	9	68	0.00	30.159 
22:20	34.3	34.3	34.3	50	17.6	2	7	248	0.00	30.158 
22:25	34.3	34.3	34.3	50	17.6	2	6	270	0.00	30.157 
22:30	34.4	34.4	34.4	50	17.7	2	6	248	0.00	30.157 
22:35	34.6	34.6	34.6	49	17.4	2	11	270	0.00	30.156 
22:40	34.6	34.6	34.6	49	17.4	1	6	248	0.00	30.157 
22:45	34.6	34.6	34.6	48	16.9	2	6	248	0.00	30.157 
22:50	34.6	34.6	34.6	49	17.4	1	4	225	0.00	30.157 
22:55	34.6	34.6	34.6	48	16.9	2	6	225	0.00	30.157 
23:00	34.7	34.7	34.7	48	17.0	2	6	248	0.00	30.158 
23:05	34.7	34.7	34.7	48	17.0	2	7	248	0.00	30.155 
23:10	34.7	34.7	34.7	48	17.0	2	5	248	0.00	30.154 
23:15	34.7	34.7	34.7	48	17.0	2	5	270	0.00	30.154 
23:20	34.9	34.9	34.9	47	16.7	2	6	248	0.00	30.155 
23:25	34.7	34.7	34.7	48	17.0	1	6	248	0.00	30.152 
23:30	34.9	34.9	34.9	47	16.7	2	7	248	0.00	30.150 
23:35	34.7	34.7	34.7	48	17.0	1	5	225	0.00	30.148 
23:40	34.7	34.7	34.7	47	16.6	1	5	270	0.00	30.147 
23:45	34.9	34.9	34.9	47	16.7	2	6	270	0.00	30.145 
23:50	34.7	34.7	34.7	47	16.6	1	5	248	0.00	30.147 
23:55	34.9	34.9	34.9	47	16.7	2	6	248	0.00	30.145 

CoCoRaHS
IN-AL-39
A2 Web Hosting
Creative Commons License
GoDaddy
Look for:

loaded 2017-10-17 18:19:05 • last modified 2010-11-18 10:43:29
Privacy PolicyDisclaimer
• wx.awcolley.com is powered by PmWiki v.2002016 •
• all content (unless otherwise noted) © 2017 A W Colley